Bradley Beach, New Jersey
Current Conditions -  °F | °C
As of 5:35 PM on Friday 24 Oct 2014 (Local Time) from KBLM Reporting Station
Broken Clouds Broken Clouds  
Wind Chill: 18°   Ceiling: 5500
Heat Index: 18°   Visibility: 10mi
Dew Point:   Wind: 7mph
Humidity: 49%   Direction: 310°NW
Pressure: 29.77"   Gusts: NA
Location:  40.2°N, 74.01°W
Report Text: KBLM 242135Z AUTO 31006KT 10SM BKN055 18/07 A2977 RMK AO1
Loading
Personal Weather Stations






























Interactive Weather Map
Tropical Storm Tracking
New forecast layout! Learn more

10-Day Weather Forecast

Advertisements
Track Severe Weather on mobile